Blue River, Wisconsin
Current Conditions -  °F | °C
As of 10:53 AM on Thursday 18 Dec 2014 (Local Time) from KOVS Reporting Station
Overcast Overcast  
Wind Chill: 24°   Ceiling: 2300
Heat Index: 24°   Visibility: 10mi
Dew Point: 18°   Wind: 0mph
Humidity: 77%   Direction: NA
Pressure: 30.32"   Gusts: NA
Location:  43.19°N, 90.57°W
Report Text: KOVS 181653Z AUTO 00000KT 10SM OVC023 M04/M08 A3032 RMK AO2 SLP279 T10441078
Loading
Personal Weather Stations






























Interactive Weather Map New forecast layout! Learn more

10-Day Weather Forecast

Advertisements
Track Severe Weather on mobile